1993 COLINA (1993012S09074)


On this page: IBTrACS data - Map and Plots - Positions - Intensities - Original source data

Summary

Start Jan 11
End Jan 21
Basin SI
LMI 95 kt
Sources jtwc_sh
reunion
neumann
In WMO? Yes
Previous storm 1993 HSK0993 (SP)
Previous in basin 1993 C39293 (SI)
Concurrent storms 1993 HSK0993 (SP)
1993 COLINA (SI)
1993 EDWINA (SI)
1993 DESSILIA (SI)
Next in basin 1993 EDWINA (SI)
Next storm 1993 EDWINA (SI)

top of page IBTrACS Data: File Access

top of page HURSAT Data: File Access

Image of storm

top of page Plots:

Map of storm track will not appear if FTP is down
Time series of cyclone Maximum Sustained Wind will not appear if FTP is down
Time series of cyclone Minimum Central Pressure will not appear if FTP is down

top of page Track Data:Position

jtwc_sh reunion neumann
Date Lat Lon Lat Lon Lat Lon
1993-01-11 12:00:00 -9.0 73.9 -9.0 73.9
1993-01-11 18:00:00 -8.9 73.4 -8.9 73.4
1993-01-12 00:00:00 -8.8 72.9 -8.8 72.9
1993-01-12 06:00:00 -8.7 72.4 -8.7 72.4
1993-01-12 12:00:00 -8.7 71.9 -8.7 71.9
1993-01-12 18:00:00 -8.7 71.4 -8.7 71.4
1993-01-13 00:00:00 -8.7 70.9 -10.2 70.7 -8.7 70.9
1993-01-13 06:00:00 -8.8 70.4 -10.4 70.1 -8.8 70.4
1993-01-13 12:00:00 -9.0 69.9 -10.5 69.4 -9.0 69.9
1993-01-13 18:00:00 -9.2 69.4 -10.6 68.9 -9.2 69.4
1993-01-14 00:00:00 -9.5 69.0 -10.7 68.3 -9.5 69.0
1993-01-14 06:00:00 -9.9 68.5 -10.7 68.1 -9.9 68.5
1993-01-14 12:00:00 -10.3 68.0 -10.9 67.9 -10.3 68.0
1993-01-14 18:00:00 -10.7 67.4 -11.2 67.3 -10.7 67.4
1993-01-15 00:00:00 -11.0 66.8 -11.6 66.6 -11.0 66.8
1993-01-15 06:00:00 -11.3 66.0 -11.5 65.5 -11.3 66.0
1993-01-15 12:00:00 -11.5 65.1 -11.5 64.6 -11.5 65.1
1993-01-15 18:00:00 -11.6 64.3 -11.3 64.1 -11.6 64.3
1993-01-16 00:00:00 -11.8 63.6 -11.3 63.4 -11.8 63.6
1993-01-16 06:00:00 -12.1 63.1 -11.5 62.6 -12.1 63.1
1993-01-16 12:00:00 -12.5 62.6 -11.8 61.8 -12.5 62.6
1993-01-16 18:00:00 -12.8 61.9 -12.4 61.0 -12.8 61.9
1993-01-17 00:00:00 -13.3 61.1 -12.8 60.1 -13.3 61.1
1993-01-17 06:00:00 -13.7 60.3 -13.0 59.4 -13.7 60.3
1993-01-17 12:00:00 -13.8 59.4 -13.2 58.7 -13.8 59.4
jtwc_sh reunion neumann
1993-01-17 18:00:00 -14.0 58.5 -13.6 58.5 -14.0 58.5
1993-01-18 00:00:00 -14.5 57.8 -14.5 58.0 -14.5 57.8
1993-01-18 06:00:00 -15.2 57.4 -15.5 57.6 -15.2 57.4
1993-01-18 12:00:00 -16.2 57.1 -16.2 57.3 -16.2 57.1
1993-01-18 18:00:00 -17.2 56.5 -17.4 56.6 -17.2 56.5
1993-01-19 00:00:00 -18.1 56.0 -18.3 55.9 -18.1 56.0
1993-01-19 06:00:00 -19.0 55.5 -19.3 55.5 -19.0 55.5
1993-01-19 12:00:00 -20.0 55.2 -20.2 55.3 -20.0 55.2
1993-01-19 18:00:00 -21.1 54.9 -21.6 55.2 -21.1 54.9
1993-01-20 00:00:00 -22.5 54.9 -23.0 54.8 -22.5 54.9
1993-01-20 06:00:00 -24.2 55.1 -24.3 55.3 -24.2 55.1
1993-01-20 12:00:00 -26.0 55.8 -26.4 56.1 -26.0 55.8
1993-01-20 18:00:00 -27.5 57.3 -28.0 57.9 -27.5 57.3
1993-01-21 00:00:00 -28.9 59.2 -30.4 60.1 -28.9 59.2
1993-01-21 06:00:00 -30.3 61.2 -31.7 62.6 -30.3 61.2
1993-01-21 12:00:00 -32.0 62.6 -32.0 62.6

top of pageTrack Data:Intensity

jtwc_sh reunion neumann
Date Wind Pres Wind Pres Wind Pres
1993-01-11 12:00:00 20. 20.
1993-01-11 18:00:00 20. 20.
1993-01-12 00:00:00 20. 20.
1993-01-12 06:00:00 20. 20.
1993-01-12 12:00:00 25. 25.
1993-01-12 18:00:00 25. 25.
1993-01-13 00:00:00 25. 23. 1002. 25.
1993-01-13 06:00:00 25. 23. 1002. 25.
1993-01-13 12:00:00 25. 23. 1000. 25.
1993-01-13 18:00:00 30. 23. 1000. 30.
1993-01-14 00:00:00 30. 28. 998. 30.
1993-01-14 06:00:00 30. 28. 998. 30.
1993-01-14 12:00:00 30. 28. 998. 30.
1993-01-14 18:00:00 35. 36. 992. 35.
1993-01-15 00:00:00 40. 36. 992. 40.
1993-01-15 06:00:00 45. 36. 992. 45.
1993-01-15 12:00:00 50. 36. 992. 50.
1993-01-15 18:00:00 55. 36. 992. 55.
1993-01-16 00:00:00 55. 44. 988. 55.
1993-01-16 06:00:00 55. 44. 988. 55.
1993-01-16 12:00:00 55. 44. 988. 55.
1993-01-16 18:00:00 50. 44. 988. 50.
1993-01-17 00:00:00 50. 44. 988. 50.
1993-01-17 06:00:00 50. 52. 980. 50.
1993-01-17 12:00:00 55. 52. 980. 55.
jtwc_sh reunion neumann
1993-01-17 18:00:00 55. 52. 980. 55.
1993-01-18 00:00:00 55. 52. 980. 55.
1993-01-18 06:00:00 55. 52. 980. 55.
1993-01-18 12:00:00 55. 52. 980. 55.
1993-01-18 18:00:00 65. 62. 975. 65.
1993-01-19 00:00:00 75. 72. 970. 75.
1993-01-19 06:00:00 85. 72. 970. 85.
1993-01-19 12:00:00 95. 72. 975. 95.
1993-01-19 18:00:00 95. 72. 980. 95.
1993-01-20 00:00:00 90. 72. 980. 90.
1993-01-20 06:00:00 90. 62. 985. 90.
1993-01-20 12:00:00 85. 52. 990. 85.
1993-01-20 18:00:00 75. 52. 990. 75.
1993-01-21 00:00:00 70. 44. 995. 70.
1993-01-21 06:00:00 65. 65.
1993-01-21 12:00:00 55. 55.

top of page Links to source data

Source Source file Format
jtwc_sh bsh101993.txt ATCF
reunion WMO-Best-Tracks.txt:Line=15935:colina WMO (old format)
neumann tracks.sh:Storm=962:COLINA:BSH101993:JTWC HURDAT